Portada
METAR-TAF:

METAR-TAF

Aeroports :

Accra, Ghana

latitud: 05-36N, longitud: 000-10W, altitud: 68 m

Observació

L'informe es va fer fa 18 minuts, a les 03:00 UTC
Vent 8 kt del Oest/Sud-Oest
Temperatura 25°C
Humitat 89%
Pressió 1013 hPa
Visibilitat 10 km o més
Cel cobert a una alçada de 1000 ft

METAR: DGAA 220300Z 25008KT 9999 OVC010 25/23 Q1013 NOSIG

Hora: 03:18 (03:18 UTC)

Pronòstic

L'informe es va fer fa 3 hores i 48 minuts, a les 23:30 UTC
Pronòstic vàlid del 22 a les 00 UTC al 23 a les 06 UTC
Vent 10 kt del Oest/Sud-Oest
Visibilitat 10 km o més
Núvols disperses a una alçada de 1400 ft
Temporalment
l' 22 a les 06 UTC al 22 a les 10 UTC
Visibilitat: 5000 m
Cel ennuvolat a una alçada de 1000 ft
boirina
Evolucionant progressivament
l' 22 a les 11 UTC al 22 a les 13 UTC
Vent 12 kt del Sud
Visibilitat 10 km o més
Núvols disperses a una alçada de 2500 ft

TAF: DGAA 212330Z 2200/2306 25010KT 9999 SCT014 TEMPO 2206/2210 5000 BR BKN010 BECMG 2211/2213 19012KT 9999 SCT025

Observacions i pronòstics meteorològics de més de 4000 aeroports (METAR i TAF).

Les estacions disponibles són els punts grocs i vermells al mapa.

Posi el ratolí al punt desitjat per veure el nom de l'estació.

Feu clic per veure les observacions i els pronòstics meteorològics.

Per canviar el mapa: feu clic els botons verds amb una creu de color negre per apropar; al botó verd amb un guió per allunyar la imatge; o en les fletxes verdes per a mapes adjacents.


METAR-TAF: